• Join FlightAware (Why Join?)
  • Login
  • US Flag 
10:36AM EDT


 

Airport Tracker/Info


-or-


 

Live Flight TrackerFlight Track Log ✈ N216WD ✈ 05-May-2013 ✈ KAUS - KBCT

Flight Track Log - Related Links

Times and Time Zones

All times are in EDT time to prevent confusion due to time zone crossing. See the N216WD flight status page for this flight to view local times or setup timezone preferences in your user account.

Time Position Orientation Groundspeed Altitude Reporting Facility
EDT Latitude Longitude Course Direction KTS MPH feet Rate Location/Type
12:38PM 30.2961 -97.6047 97° East 217 250 5,800  Level Houston Center
12:39PM 30.3408 -97.5225 58° Northeast 254 292 9,400 2,940 Climbing Houston Center
12:40PM 30.3394 -97.4272 91° East 290 334 11,900 1,320 Climbing Houston Center
12:41PM 30.3381 -97.3203 91° East 326 375 12,200 1,500 Climbing Houston Center
12:42PM 30.3333 -96.8917 90° East  Level FlightAware Approximate
12:42PM 30.3367 -97.2147 91° East 327 376 15,000  Level Houston Center
12:43PM 30.3294 -96.7438 97° East  Level FlightAware Approximate
12:43PM 30.3483 -97.1072 83° East 333 383 17,200  Level Houston Center
12:44PM 30.3514 -96.9869 88° East 367 422 19,400 2,280 Climbing Houston Center
12:45PM 30.3322 -96.8414 99° East 388 447 22,000 2,340 Climbing Houston Center
12:46PM 30.3097 -96.7133 101° East 400 460 24,300 1,980 Climbing Houston Center
12:47PM 30.2922 -96.5833 99° East 405 466 26,200 1,500 Climbing Houston Center
12:48PM 30.2722 -96.4481 100° East 422 486 27,500 1,200 Climbing Houston Center
12:49PM 30.2511 -96.3067 100° East 438 504 28,700 1,260 Climbing Houston Center
12:50PM 30.2306 -96.1608 99° East 452 520 30,200 1,440 Climbing Houston Center
12:51PM 30.2044 -95.9950 100° East 455 524 31,700 1,200 Climbing Houston Center
12:52PM 30.1817 -95.8467 100° East 467 537 32,800 1,020 Climbing Houston Center
12:53PM 30.1586 -95.6944 100° East 478 550 33,900 960 Climbing Houston Center
12:54PM 30.1353 -95.5408 100° East 483 556 34,800 1,140 Climbing Houston Center
12:55PM 30.1117 -95.3847 100° East 491 565 36,300 1,020 Climbing Houston Center
12:56PM 30.0883 -95.2322 100° East 482 555 37,000 300 Climbing Houston Center
12:57PM 30.0628 -95.0717 100° East 500 575 37,000  Level Houston Center
12:58PM 30.0317 -94.8728 100° East 519 597 37,000  Level Houston Center
01:00PM 30.0042 -94.7067 101° East 524 603 37,000  Level Houston Center
01:01PM 29.9767 -94.5386 101° East 529 609 37,000  Level Houston Center
01:02PM 29.9494 -94.3750 101° East 526 605 37,000  Level Houston Center
01:03PM 29.9228 -94.2100 101° East 527 606 37,000  Level Houston Center
01:04PM 29.8944 -94.0439 101° East 531 611 37,000  Level Houston Center
01:05PM 29.8614 -93.8447 101° East 533 613 37,000  Level Houston Center
01:06PM 29.8331 -93.6794 101° East 532 612 37,000  Level Houston Center
01:07PM 29.8039 -93.5150 102° East 531 611 37,000  Level Houston Center
01:08PM 29.7758 -93.3489 101° East 532 612 37,000  Level Houston Center
01:09PM 29.7411 -93.1525 101° East 527 606 37,000  Level Houston Center
01:10PM 29.7136 -92.9883 101° East 527 606 37,000  Level Houston Center
01:11PM 29.6850 -92.8244 101° East 526 605 37,000  Level Houston Center
01:12PM 29.6556 -92.6619 102° East 524 603 37,000  Level Houston Center
01:13PM 29.6264 -92.4983 102° East 524 603 37,000  Level Houston Center
01:14PM 29.5917 -92.3031 102° East 521 600 37,000  Level Houston Center
01:15PM 29.5619 -92.1392 102° East 525 604 37,000  Level Houston Center
01:16PM 29.5322 -91.9764 102° East 524 603 37,000  Level Houston Center
01:17PM 29.5022 -91.8125 102° East 526 605 37,000  Level Houston Center
01:18PM 29.4703 -91.6383 102° East 525 604 37,000  Level Houston Center
01:19PM 29.4392 -91.4753 102° East 526 605 37,000  Level Houston Center
01:20PM 29.4083 -91.3117 102° East 526 605 37,000  Level Houston Center
01:21PM 29.3772 -91.1492 102° East 526 605 37,000  Level Houston Center
01:22PM 29.3400 -90.9531 102° East 527 606 37,000  Level Houston Center
01:23PM 29.3089 -90.7894 102° East 530 610 37,000  Level Houston Center
01:24PM 29.2767 -90.6278 103° East 525 604 37,000  Level Houston Center
01:25PM 29.2456 -90.4639 102° East 529 609 37,000  Level Houston Center
01:26PM 29.2131 -90.3008 103° East 528 608 37,000  Level Houston Center
01:27PM 29.1736 -90.1053 103° East 530 610 37,000  Level Houston Center
01:29PM 29.1408 -89.9422 103° East 530 610 37,000  Level Houston Center
01:30PM 29.1064 -89.7786 104° East 534 615 37,000  Level Houston Center
01:31PM 29.0736 -89.6153 103° East 531 611 37,000  Level Houston Center
01:32PM 29.0403 -89.4497 103° East 537 618 37,000  Level Houston Center
01:33PM 28.9992 -89.2564 104° East 528 608 37,000  Level Houston Center
01:34PM 28.9647 -89.0931 104° East 529 609 37,000  Level Houston Center
01:35PM 28.9303 -88.9306 104° East 529 609 37,000  Level Houston Center
01:36PM 28.8967 -88.7697 103° East 526 605 37,000  Level Houston Center
01:37PM 28.8597 -88.6089 105° East 526 605 37,000  Level Houston Center
01:38PM 28.8031 -88.4228 109° East 521 600 37,000  Level Houston Center
01:39PM 28.7611 -88.2653 107° East 519 597 37,000  Level Houston Center
01:40PM 28.7175 -88.1089 108° East 519 597 37,000  Level Houston Center
01:41PM 28.6692 -87.9367 108° East 519 597 37,000  Level Houston Center
01:42PM 28.6250 -87.7811 108° East 519 597 37,000  Level Houston Center
01:43PM 28.5806 -87.6244 108° East 521 600 37,000  Level Houston Center
01:44PM 28.5431 -87.4978 109° East 504 580 37,000  Level Jacksonville Center
01:45PM 28.5028 -87.3450 107° East 509 586 37,000  Level Jacksonville Center
01:46PM 28.4558 -87.1869 109° East 522 601 37,000  Level Jacksonville Center
01:47PM 28.4108 -87.0364 109° East 522 601 37,000  Level Jacksonville Center
01:48PM 28.3617 -86.8694 108° East 533 613 37,000  Level Jacksonville Center
01:49PM 28.3164 -86.7167 109° East 526 605 37,000  Level Jacksonville Center
01:50PM 28.2728 -86.5642 108° East 526 605 37,000  Level Jacksonville Center
01:51PM 28.2272 -86.4072 108° East 526 605 37,000  Level Jacksonville Center
01:52PM 28.1811 -86.2503 108° East 520 598 37,000  Level Jacksonville Center
01:53PM 28.1350 -86.0956 109° East 525 604 37,000  Level Jacksonville Center
01:54PM 28.0869 -85.9367 109° East 530 610 37,000 -360 Level Jacksonville Center
01:55PM 28.0403 -85.7800 109° East 530 610 36,400 -720 Descending Jacksonville Center
01:56PM 27.9917 -85.6189 109° East 530 610 35,600 -960 Descending Jacksonville Center
01:58PM 27.8958 -85.3036 109° East 530 610 33,400 -840 Descending Miami Center
01:59PM 27.8569 -85.1458 106° East 521 600 33,000 -240 Descending Miami Center
02:00PM 27.8414 -84.9831 96° East 521 600 33,000  Level Miami Center
02:01PM 27.8067 -84.8211 104° East 526 605 33,000  Level Miami Center
02:02PM 27.7825 -84.6553 99° East 531 611 33,000  Level Miami Center
02:03PM 27.7475 -84.4914 104° East 531 611 33,000  Level Miami Center
02:04PM 27.7036 -84.3361 108° East 531 611 33,000  Level Miami Center
02:05PM 27.6383 -84.1867 116° Southeast 524 603 33,000 -180 Level Miami Center
02:06PM 27.5814 -84.0311 112° Southeast 529 609 32,700 -600 Descending Miami Center
02:07PM 27.5244 -83.8778 113° Southeast 529 609 31,800 -840 Descending Miami Center
02:08PM 27.4647 -83.7314 115° Southeast 523 602 31,100 -420 Descending Miami Center
02:09PM 27.4153 -83.5836 111° Southeast 518 596 31,000 -60 Descending Miami Center
02:10PM 27.3553 -83.4353 114° Southeast 513 590 31,000  Level Miami Center
02:11PM 27.2994 -83.2875 113° Southeast 513 590 31,000  Level Miami Center
02:12PM 27.2358 -83.1181 113° Southeast 518 596 31,000 -300 Level Miami Center
02:13PM 27.1797 -82.9681 113° Southeast 523 602 30,400 -840 Descending Miami Center
02:14PM 27.1233 -82.8231 114° Southeast 517 595 29,400 -1,200 Descending Miami Center
02:15PM 27.0667 -82.6778 114° Southeast 512 589 28,000 -1,200 Descending Miami Center
02:16PM 27.0192 -82.5589 114° Southeast 512 589 27,100 -1,200 Descending Miami Center
02:17PM 26.9528 -82.3881 114° Southeast 507 583 25,700 -1,260 Descending Miami Center
02:18PM 26.8975 -82.2481 114° Southeast 502 578 24,600 -1,260 Descending Miami Center
02:19PM 26.8458 -82.1178 114° Southeast 482 555 23,200 -1,500 Descending Miami Center
02:20PM 26.7964 -81.9875 113° Southeast 463 533 21,700 -1,500 Descending Miami Center
02:21PM 26.7464 -81.8644 114° Southeast 440 506 20,300 -1,200 Descending Miami Center
02:22PM 26.6983 -81.7394 113° Southeast 435 501 19,300 -600 Descending Miami Center
02:23PM 26.6942 -81.6114 92° East 420 483 19,100 -180 Descending Miami Center
02:24PM 26.7258 -81.4731 76° East 425 489 19,000 -60 Descending Miami Center
02:25PM 26.7547 -81.3486 75° East 449 517 19,000 -600 Level Miami Center
02:26PM 26.7906 -81.2011 75° East 449 517 17,800 -1,800 Descending Miami Center
02:27PM 26.8131 -81.0764 79° East 418 481 15,400 -2,520 Descending Miami Center
02:28PM 26.8081 -80.9575 93° East 389 448 12,800 -2,340 Descending Miami Center
02:29PM 26.8003 -80.8594 95° East 367 422 10,800 -1,920 Descending Miami Center
02:30PM 26.7761 -80.7564 105° East 324 373 9,000 -900 Descending Miami Center
02:31PM 26.7189 -80.7081 143° Southeast 283 326 9,000 -600 Level Miami Center
02:32PM 26.6472 -80.6522 145° Southeast 281 323 7,900 -1,500 Descending Miami Center
02:33PM 26.6053 -80.5833 124° Southeast 286 329 6,100 -1,560 Descending Miami Center
02:34PM 26.5742 -80.4872 110° East 264 304 4,600 -1,260 Descending Miami Center
02:35PM 26.5586 -80.4381 109° East 261 300 3,900 -1,200 Descending Miami Center
02:35PM 26.5569 -80.4286 101° East 258 297 3,600 -900 Descending Miami Center
02:36PM 26.5353 -80.3700 112° Southeast 250 288 3,100 -600 Descending Miami Center
02:36PM 26.5336 -80.3492 95° East 242 278 3,000  Descending Miami Center
02:37PM 26.5158 -80.3067 115° Southeast 226 260 3,100 -120 Climbing Miami Center
02:37PM 26.5122 -80.2881 102° East 232 267 2,900 -900 Descending Miami Center
02:38PM 26.4925 -80.2317 111° Southeast 246 283 2,200 -540 Descending Miami Center
02:39PM 26.4731 -80.1708 110° East 224 258 2,100 -60 Descending Miami Center
02:40PM 26.4558 -80.1078 107° East 188 216 2,100 -420 Level Miami Center
02:41PM 26.4208 -80.0742 139° Southeast 151 174 1,200 -840 Descending Miami Center
02:42PM 26.3892 -80.0942 210° Southwest 116 133 400 -840 Descending Miami Center
02:44PM 26.3667 -80.1000 180° South  Level FlightAware Approximate
02:51PM 26.3785 -80.1077 180° South  Level Estimated